sensor_id;sensor_type;location;lat;lon;timestamp;pressure;altitude;pressure_sealevel;temperature;humidity
56681;BME280;42558;52.388;13.390;2024-01-30T00:01:04;102520.17;;;-1.54;100.00
56681;BME280;42558;52.388;13.390;2024-01-30T00:03:33;102521.30;;;-1.51;100.00
56681;BME280;42558;52.388;13.390;2024-01-30T00:06:04;102517.82;;;-1.54;100.00
56681;BME280;42558;52.388;13.390;2024-01-30T00:08:36;102511.20;;;-1.56;100.00
56681;BME280;42558;52.388;13.390;2024-01-30T00:11:08;102511.71;;;-1.43;100.00
56681;BME280;42558;52.388;13.390;2024-01-30T00:13:39;102515.85;;;-1.45;100.00
56681;BME280;42558;52.388;13.390;2024-01-30T00:16:25;102513.42;;;-1.54;100.00
56681;BME280;42558;52.388;13.390;2024-01-30T00:19:04;102513.87;;;-1.61;100.00
56681;BME280;42558;52.388;13.390;2024-01-30T00:21:37;102516.98;;;-1.61;100.00
56681;BME280;42558;52.388;13.390;2024-01-30T00:24:10;102514.93;;;-1.65;100.00
56681;BME280;42558;52.388;13.390;2024-01-30T00:26:45;102512.45;;;-1.66;100.00
56681;BME280;42558;52.388;13.390;2024-01-30T00:29:17;102513.90;;;-1.64;100.00
56681;BME280;42558;52.388;13.390;2024-01-30T00:31:55;102515.08;;;-1.67;100.00
56681;BME280;42558;52.388;13.390;2024-01-30T00:34:25;102514.66;;;-1.69;100.00
56681;BME280;42558;52.388;13.390;2024-01-30T00:37:05;102510.42;;;-1.73;100.00
56681;BME280;42558;52.388;13.390;2024-01-30T00:39:35;102510.27;;;-1.76;100.00
56681;BME280;42558;52.388;13.390;2024-01-30T00:42:07;102512.63;;;-1.78;100.00
56681;BME280;42558;52.388;13.390;2024-01-30T00:44:37;102508.34;;;-1.82;100.00
56681;BME280;42558;52.388;13.390;2024-01-30T00:47:09;102506.89;;;-1.82;100.00
56681;BME280;42558;52.388;13.390;2024-01-30T00:49:38;102510.69;;;-1.81;100.00
56681;BME280;42558;52.388;13.390;2024-01-30T00:52:09;102508.10;;;-1.82;100.00
56681;BME280;42558;52.388;13.390;2024-01-30T00:54:42;102503.68;;;-1.84;100.00
56681;BME280;42558;52.388;13.390;2024-01-30T00:57:12;102503.67;;;-1.86;100.00
56681;BME280;42558;52.388;13.390;2024-01-30T00:59:42;102501.98;;;-1.89;100.00
56681;BME280;42558;52.388;13.390;2024-01-30T01:02:11;102506.41;;;-1.88;100.00
56681;BME280;42558;52.388;13.390;2024-01-30T01:04:47;102499.70;;;-1.94;100.00
56681;BME280;42558;52.388;13.390;2024-01-30T01:07:17;102503.44;;;-1.90;100.00
56681;BME280;42558;52.388;13.390;2024-01-30T01:09:49;102504.44;;;-1.91;100.00
56681;BME280;42558;52.388;13.390;2024-01-30T01:12:20;102504.09;;;-1.93;100.00
56681;BME280;42558;52.388;13.390;2024-01-30T01:14:51;102509.45;;;-1.95;100.00
56681;BME280;42558;52.388;13.390;2024-01-30T01:17:26;102504.85;;;-1.92;100.00
56681;BME280;42558;52.388;13.390;2024-01-30T01:20:17;102504.86;;;-1.92;100.00
56681;BME280;42558;52.388;13.390;2024-01-30T01:22:50;102499.84;;;-1.92;100.00
56681;BME280;42558;52.388;13.390;2024-01-30T01:25:22;102502.31;;;-1.94;100.00
56681;BME280;42558;52.388;13.390;2024-01-30T01:27:54;102501.91;;;-1.96;100.00
56681;BME280;42558;52.388;13.390;2024-01-30T01:30:29;102502.30;;;-1.95;100.00
56681;BME280;42558;52.388;13.390;2024-01-30T01:33:08;102505.61;;;-1.97;100.00
56681;BME280;42558;52.388;13.390;2024-01-30T01:35:57;102508.56;;;-1.95;100.00
56681;BME280;42558;52.388;13.390;2024-01-30T01:38:32;102509.98;;;-1.95;100.00
56681;BME280;42558;52.388;13.390;2024-01-30T01:41:06;102502.42;;;-1.94;100.00
56681;BME280;42558;52.388;13.390;2024-01-30T01:43:44;102503.65;;;-1.96;100.00
56681;BME280;42558;52.388;13.390;2024-01-30T01:46:32;102503.27;;;-1.96;100.00
56681;BME280;42558;52.388;13.390;2024-01-30T01:49:13;102499.66;;;-1.94;100.00
56681;BME280;42558;52.388;13.390;2024-01-30T01:51:51;102501.27;;;-1.94;100.00
56681;BME280;42558;52.388;13.390;2024-01-30T01:54:33;102499.47;;;-1.90;100.00
56681;BME280;42558;52.388;13.390;2024-01-30T01:57:08;102496.35;;;-1.88;100.00
56681;BME280;42558;52.388;13.390;2024-01-30T01:59:42;102495.07;;;-1.91;100.00
56681;BME280;42558;52.388;13.390;2024-01-30T02:02:25;102496.11;;;-1.92;100.00
56681;BME280;42558;52.388;13.390;2024-01-30T02:05:09;102495.23;;;-1.92;100.00
56681;BME280;42558;52.388;13.390;2024-01-30T02:07:48;102497.08;;;-1.94;100.00
56681;BME280;42558;52.388;13.390;2024-01-30T02:10:22;102497.89;;;-1.95;100.00
56681;BME280;42558;52.388;13.390;2024-01-30T02:12:58;102493.89;;;-1.93;100.00
56681;BME280;42558;52.388;13.390;2024-01-30T02:15:30;102490.45;;;-1.91;100.00
56681;BME280;42558;52.388;13.390;2024-01-30T02:18:07;102494.46;;;-1.93;100.00
56681;BME280;42558;52.388;13.390;2024-01-30T02:20:54;102494.35;;;-1.94;100.00
56681;BME280;42558;52.388;13.390;2024-01-30T02:23:34;102497.47;;;-1.95;100.00
56681;BME280;42558;52.388;13.390;2024-01-30T02:26:09;102500.91;;;-1.94;100.00
56681;BME280;42558;52.388;13.390;2024-01-30T02:28:46;102497.27;;;-1.96;100.00
56681;BME280;42558;52.388;13.390;2024-01-30T02:31:16;102499.45;;;-1.98;100.00
56681;BME280;42558;52.388;13.390;2024-01-30T02:33:46;102498.04;;;-1.99;100.00
56681;BME280;42558;52.388;13.390;2024-01-30T02:36:17;102495.58;;;-1.99;100.00
56681;BME280;42558;52.388;13.390;2024-01-30T02:38:47;102500.77;;;-1.99;100.00
56681;BME280;42558;52.388;13.390;2024-01-30T02:41:18;102497.91;;;-2.02;100.00
56681;BME280;42558;52.388;13.390;2024-01-30T02:43:49;102496.73;;;-2.02;100.00
56681;BME280;42558;52.388;13.390;2024-01-30T02:46:20;102494.20;;;-2.01;100.00
56681;BME280;42558;52.388;13.390;2024-01-30T02:48:52;102491.02;;;-2.02;100.00
56681;BME280;42558;52.388;13.390;2024-01-30T02:51:29;102487.70;;;-2.04;100.00
56681;BME280;42558;52.388;13.390;2024-01-30T02:54:06;102489.55;;;-2.05;100.00
56681;BME280;42558;52.388;13.390;2024-01-30T02:56:39;102489.48;;;-1.96;100.00
56681;BME280;42558;52.388;13.390;2024-01-30T02:59:10;102490.33;;;-1.98;100.00
56681;BME280;42558;52.388;13.390;2024-01-30T03:01:46;102486.25;;;-2.03;100.00
56681;BME280;42558;52.388;13.390;2024-01-30T03:04:29;102483.53;;;-2.07;100.00
56681;BME280;42558;52.388;13.390;2024-01-30T03:07:10;102482.84;;;-2.05;100.00
56681;BME280;42558;52.388;13.390;2024-01-30T03:09:51;102484.55;;;-2.01;100.00
56681;BME280;42558;52.388;13.390;2024-01-30T03:12:33;102480.73;;;-2.03;100.00
56681;BME280;42558;52.388;13.390;2024-01-30T03:15:02;102477.61;;;-2.03;100.00
56681;BME280;42558;52.388;13.390;2024-01-30T03:17:35;102478.41;;;-1.99;100.00
56681;BME280;42558;52.388;13.390;2024-01-30T03:20:13;102470.84;;;-1.96;100.00
56681;BME280;42558;52.388;13.390;2024-01-30T03:23:01;102471.40;;;-1.94;100.00
56681;BME280;42558;52.388;13.390;2024-01-30T03:25:33;102473.36;;;-1.95;100.00
56681;BME280;42558;52.388;13.390;2024-01-30T03:28:08;102470.77;;;-1.87;100.00
56681;BME280;42558;52.388;13.390;2024-01-30T03:30:49;102474.45;;;-1.97;100.00
56681;BME280;42558;52.388;13.390;2024-01-30T03:33:22;102473.44;;;-2.00;100.00
56681;BME280;42558;52.388;13.390;2024-01-30T03:36:06;102466.91;;;-2.03;100.00
56681;BME280;42558;52.388;13.390;2024-01-30T03:38:36;102466.16;;;-2.04;100.00
56681;BME280;42558;52.388;13.390;2024-01-30T03:41:14;102464.88;;;-2.05;100.00
56681;BME280;42558;52.388;13.390;2024-01-30T03:43:47;102466.06;;;-2.05;100.00
56681;BME280;42558;52.388;13.390;2024-01-30T03:46:19;102466.18;;;-2.06;100.00
56681;BME280;42558;52.388;13.390;2024-01-30T03:49:00;102468.52;;;-2.09;100.00
56681;BME280;42558;52.388;13.390;2024-01-30T03:51:32;102463.49;;;-2.09;100.00
56681;BME280;42558;52.388;13.390;2024-01-30T03:54:06;102464.08;;;-2.10;100.00
56681;BME280;42558;52.388;13.390;2024-01-30T03:56:43;102461.80;;;-2.12;100.00
56681;BME280;42558;52.388;13.390;2024-01-30T03:59:13;102463.27;;;-2.06;100.00
56681;BME280;42558;52.388;13.390;2024-01-30T04:01:52;102464.33;;;-2.07;100.00
56681;BME280;42558;52.388;13.390;2024-01-30T04:04:41;102464.34;;;-2.11;100.00
56681;BME280;42558;52.388;13.390;2024-01-30T04:07:11;102460.05;;;-2.14;100.00
56681;BME280;42558;52.388;13.390;2024-01-30T04:09:44;102463.61;;;-2.13;100.00
56681;BME280;42558;52.388;13.390;2024-01-30T04:12:17;102462.68;;;-2.10;100.00
56681;BME280;42558;52.388;13.390;2024-01-30T04:14:51;102461.57;;;-2.11;100.00
56681;BME280;42558;52.388;13.390;2024-01-30T04:17:23;102459.65;;;-2.15;100.00
56681;BME280;42558;52.388;13.390;2024-01-30T04:20:00;102458.59;;;-2.13;100.00
56681;BME280;42558;52.388;13.390;2024-01-30T04:22:33;102461.91;;;-2.13;100.00
56681;BME280;42558;52.388;13.390;2024-01-30T04:25:04;102464.21;;;-2.16;100.00
56681;BME280;42558;52.388;13.390;2024-01-30T04:27:34;102458.89;;;-2.16;100.00
56681;BME280;42558;52.388;13.390;2024-01-30T04:30:06;102461.34;;;-2.17;100.00
56681;BME280;42558;52.388;13.390;2024-01-30T04:32:38;102460.66;;;-2.19;100.00
56681;BME280;42558;52.388;13.390;2024-01-30T04:35:17;102462.39;;;-2.19;100.00
56681;BME280;42558;52.388;13.390;2024-01-30T04:37:53;102459.66;;;-2.20;100.00
56681;BME280;42558;52.388;13.390;2024-01-30T04:40:24;102457.39;;;-2.21;100.00
56681;BME280;42558;52.388;13.390;2024-01-30T04:42:53;102457.09;;;-2.20;100.00
56681;BME280;42558;52.388;13.390;2024-01-30T04:45:22;102454.53;;;-2.20;100.00
56681;BME280;42558;52.388;13.390;2024-01-30T04:47:50;102455.41;;;-2.20;100.00
56681;BME280;42558;52.388;13.390;2024-01-30T04:50:19;102457.75;;;-2.19;100.00
56681;BME280;42558;52.388;13.390;2024-01-30T04:52:47;102456.89;;;-2.19;100.00
56681;BME280;42558;52.388;13.390;2024-01-30T04:55:16;102455.98;;;-2.17;100.00
56681;BME280;42558;52.388;13.390;2024-01-30T04:57:50;102455.39;;;-2.18;100.00
56681;BME280;42558;52.388;13.390;2024-01-30T05:00:20;102453.27;;;-2.19;100.00
56681;BME280;42558;52.388;13.390;2024-01-30T05:02:51;102456.82;;;-2.17;100.00
56681;BME280;42558;52.388;13.390;2024-01-30T05:05:25;102456.20;;;-2.17;100.00
56681;BME280;42558;52.388;13.390;2024-01-30T05:07:58;102457.13;;;-2.16;100.00
56681;BME280;42558;52.388;13.390;2024-01-30T05:10:29;102457.09;;;-2.15;100.00
56681;BME280;42558;52.388;13.390;2024-01-30T05:13:02;102456.86;;;-2.14;100.00
56681;BME280;42558;52.388;13.390;2024-01-30T05:15:32;102454.91;;;-2.16;100.00
56681;BME280;42558;52.388;13.390;2024-01-30T05:18:06;102449.05;;;-2.20;100.00
56681;BME280;42558;52.388;13.390;2024-01-30T05:20:39;102454.20;;;-2.18;100.00
56681;BME280;42558;52.388;13.390;2024-01-30T05:23:11;102457.48;;;-2.18;100.00
56681;BME280;42558;52.388;13.390;2024-01-30T05:25:46;102458.84;;;-2.16;100.00
56681;BME280;42558;52.388;13.390;2024-01-30T05:28:17;102460.80;;;-2.20;100.00
56681;BME280;42558;52.388;13.390;2024-01-30T05:30:51;102459.91;;;-2.20;100.00
56681;BME280;42558;52.388;13.390;2024-01-30T05:33:23;102457.23;;;-2.19;100.00
56681;BME280;42558;52.388;13.390;2024-01-30T05:35:56;102455.19;;;-2.21;100.00
56681;BME280;42558;52.388;13.390;2024-01-30T05:38:30;102457.70;;;-2.20;100.00
56681;BME280;42558;52.388;13.390;2024-01-30T05:41:09;102457.05;;;-2.21;100.00
56681;BME280;42558;52.388;13.390;2024-01-30T05:43:41;102455.90;;;-2.20;100.00
56681;BME280;42558;52.388;13.390;2024-01-30T05:46:12;102451.80;;;-2.18;100.00
56681;BME280;42558;52.388;13.390;2024-01-30T05:48:47;102450.20;;;-2.16;100.00
56681;BME280;42558;52.388;13.390;2024-01-30T05:51:28;102450.44;;;-2.18;100.00
56681;BME280;42558;52.388;13.390;2024-01-30T05:54:00;102451.56;;;-2.19;100.00
56681;BME280;42558;52.388;13.390;2024-01-30T05:56:31;102451.03;;;-2.17;100.00
56681;BME280;42558;52.388;13.390;2024-01-30T05:59:07;102450.08;;;-2.16;100.00
56681;BME280;42558;52.388;13.390;2024-01-30T06:01:47;102447.77;;;-2.17;100.00
56681;BME280;42558;52.388;13.390;2024-01-30T06:04:27;102447.36;;;-2.20;100.00
56681;BME280;42558;52.388;13.390;2024-01-30T06:06:59;102444.10;;;-2.19;100.00
56681;BME280;42558;52.388;13.390;2024-01-30T06:09:32;102443.80;;;-2.19;100.00
56681;BME280;42558;52.388;13.390;2024-01-30T06:12:08;102449.31;;;-2.17;100.00
56681;BME280;42558;52.388;13.390;2024-01-30T06:14:40;102448.34;;;-2.14;100.00
56681;BME280;42558;52.388;13.390;2024-01-30T06:17:16;102451.70;;;-2.10;100.00
56681;BME280;42558;52.388;13.390;2024-01-30T06:19:46;102451.80;;;-2.08;100.00
56681;BME280;42558;52.388;13.390;2024-01-30T06:22:17;102452.89;;;-2.10;100.00
56681;BME280;42558;52.388;13.390;2024-01-30T06:24:52;102451.88;;;-2.09;100.00
56681;BME280;42558;52.388;13.390;2024-01-30T06:27:22;102447.13;;;-2.11;100.00
56681;BME280;42558;52.388;13.390;2024-01-30T06:29:52;102448.09;;;-2.06;100.00
56681;BME280;42558;52.388;13.390;2024-01-30T06:32:27;102445.85;;;-2.06;100.00
56681;BME280;42558;52.388;13.390;2024-01-30T06:35:07;102443.36;;;-2.05;100.00
56681;BME280;42558;52.388;13.390;2024-01-30T06:37:45;102442.02;;;-2.06;100.00
56681;BME280;42558;52.388;13.390;2024-01-30T06:40:15;102439.90;;;-2.05;100.00
56681;BME280;42558;52.388;13.390;2024-01-30T06:42:46;102440.73;;;-2.05;100.00
56681;BME280;42558;52.388;13.390;2024-01-30T06:45:16;102437.89;;;-2.02;100.00
56681;BME280;42558;52.388;13.390;2024-01-30T06:47:46;102429.11;;;-2.01;100.00
56681;BME280;42558;52.388;13.390;2024-01-30T06:50:17;102428.70;;;-2.01;100.00
56681;BME280;42558;52.388;13.390;2024-01-30T06:52:47;102432.77;;;-1.96;100.00
56681;BME280;42558;52.388;13.390;2024-01-30T06:55:18;102432.84;;;-1.97;100.00
56681;BME280;42558;52.388;13.390;2024-01-30T06:57:49;102433.64;;;-1.96;100.00
56681;BME280;42558;52.388;13.390;2024-01-30T07:00:25;102438.53;;;-1.96;100.00
56681;BME280;42558;52.388;13.390;2024-01-30T07:02:58;102435.64;;;-1.95;100.00
56681;BME280;42558;52.388;13.390;2024-01-30T07:05:26;102439.08;;;-1.94;100.00
56681;BME280;42558;52.388;13.390;2024-01-30T07:07:55;102438.77;;;-1.87;100.00
56681;BME280;42558;52.388;13.390;2024-01-30T07:10:29;102439.48;;;-1.84;100.00
56681;BME280;42558;52.388;13.390;2024-01-30T07:13:08;102442.55;;;-1.80;100.00
56681;BME280;42558;52.388;13.390;2024-01-30T07:15:44;102445.80;;;-1.70;100.00
56681;BME280;42558;52.388;13.390;2024-01-30T07:18:17;102448.56;;;-1.64;100.00
56681;BME280;42558;52.388;13.390;2024-01-30T07:20:58;102444.40;;;-1.53;100.00
56681;BME280;42558;52.388;13.390;2024-01-30T07:23:29;102439.53;;;-1.36;100.00
56681;BME280;42558;52.388;13.390;2024-01-30T07:25:57;102444.14;;;-1.31;100.00
56681;BME280;42558;52.388;13.390;2024-01-30T07:28:29;102441.08;;;-1.32;100.00
56681;BME280;42558;52.388;13.390;2024-01-30T07:31:16;102440.05;;;-1.30;100.00
56681;BME280;42558;52.388;13.390;2024-01-30T07:33:57;102433.73;;;-1.25;100.00
56681;BME280;42558;52.388;13.390;2024-01-30T07:36:35;102428.73;;;-1.16;100.00
56681;BME280;42558;52.388;13.390;2024-01-30T07:39:11;102428.15;;;-1.08;100.00
56681;BME280;42558;52.388;13.390;2024-01-30T07:41:43;102433.50;;;-1.04;100.00
56681;BME280;42558;52.388;13.390;2024-01-30T07:44:17;102429.40;;;-1.00;100.00
56681;BME280;42558;52.388;13.390;2024-01-30T07:46:48;102428.46;;;-0.87;100.00
56681;BME280;42558;52.388;13.390;2024-01-30T07:49:20;102428.91;;;-0.75;100.00
56681;BME280;42558;52.388;13.390;2024-01-30T07:51:52;102426.73;;;-0.63;100.00
56681;BME280;42558;52.388;13.390;2024-01-30T07:54:31;102430.71;;;-0.49;100.00
56681;BME280;42558;52.388;13.390;2024-01-30T07:57:12;102431.91;;;-0.43;100.00
56681;BME280;42558;52.388;13.390;2024-01-30T07:59:49;102434.13;;;-0.31;100.00
56681;BME280;42558;52.388;13.390;2024-01-30T08:02:22;102429.94;;;-0.14;100.00
56681;BME280;42558;52.388;13.390;2024-01-30T08:04:56;102426.13;;;0.12;100.00
56681;BME280;42558;52.388;13.390;2024-01-30T08:07:31;102421.44;;;0.36;100.00
56681;BME280;42558;52.388;13.390;2024-01-30T08:10:15;102422.59;;;0.43;100.00
56681;BME280;42558;52.388;13.390;2024-01-30T08:12:52;102418.79;;;0.37;100.00
56681;BME280;42558;52.388;13.390;2024-01-30T08:15:23;102420.13;;;0.41;100.00
56681;BME280;42558;52.388;13.390;2024-01-30T08:17:53;102420.47;;;0.45;100.00
56681;BME280;42558;52.388;13.390;2024-01-30T08:20:29;102418.48;;;0.50;100.00
56681;BME280;42558;52.388;13.390;2024-01-30T08:23:01;102414.38;;;0.55;100.00
56681;BME280;42558;52.388;13.390;2024-01-30T08:25:31;102412.29;;;0.59;100.00
56681;BME280;42558;52.388;13.390;2024-01-30T08:28:12;102402.73;;;0.67;100.00
56681;BME280;42558;52.388;13.390;2024-01-30T08:30:41;102399.92;;;0.86;100.00
56681;BME280;42558;52.388;13.390;2024-01-30T08:33:12;102394.54;;;1.00;100.00
56681;BME280;42558;52.388;13.390;2024-01-30T08:35:51;102386.67;;;1.23;100.00
56681;BME280;42558;52.388;13.390;2024-01-30T08:38:28;102389.84;;;1.44;100.00
56681;BME280;42558;52.388;13.390;2024-01-30T08:41:12;102398.13;;;1.64;100.00
56681;BME280;42558;52.388;13.390;2024-01-30T08:43:44;102383.41;;;1.80;100.00
56681;BME280;42558;52.388;13.390;2024-01-30T08:46:19;102381.64;;;1.96;100.00
56681;BME280;42558;52.388;13.390;2024-01-30T08:48:50;102382.66;;;2.10;100.00
56681;BME280;42558;52.388;13.390;2024-01-30T08:51:22;102380.95;;;2.27;100.00
56681;BME280;42558;52.388;13.390;2024-01-30T08:53:52;102376.98;;;2.43;100.00
56681;BME280;42558;52.388;13.390;2024-01-30T08:56:25;102378.54;;;2.61;100.00
56681;BME280;42558;52.388;13.390;2024-01-30T08:58:56;102379.72;;;2.74;100.00
56681;BME280;42558;52.388;13.390;2024-01-30T09:01:30;102385.05;;;2.93;100.00
56681;BME280;42558;52.388;13.390;2024-01-30T09:04:10;102382.73;;;3.08;100.00
56681;BME280;42558;52.388;13.390;2024-01-30T09:06:52;102380.29;;;3.22;100.00
56681;BME280;42558;52.388;13.390;2024-01-30T09:09:48;102377.52;;;3.28;100.00
56681;BME280;42558;52.388;13.390;2024-01-30T09:12:28;102375.44;;;3.40;100.00
56681;BME280;42558;52.388;13.390;2024-01-30T09:15:07;102375.54;;;3.49;100.00
56681;BME280;42558;52.388;13.390;2024-01-30T09:17:39;102378.02;;;3.65;100.00
56681;BME280;42558;52.388;13.390;2024-01-30T09:20:11;102380.30;;;3.76;99.37
56681;BME280;42558;52.388;13.390;2024-01-30T09:22:50;102378.83;;;3.70;98.14
56681;BME280;42558;52.388;13.390;2024-01-30T09:25:20;102379.05;;;3.78;97.41
56681;BME280;42558;52.388;13.390;2024-01-30T09:28:06;102375.61;;;3.73;97.68
56681;BME280;42558;52.388;13.390;2024-01-30T09:30:42;102375.07;;;3.81;98.27
56681;BME280;42558;52.388;13.390;2024-01-30T09:33:17;102374.15;;;3.65;97.00
56681;BME280;42558;52.388;13.390;2024-01-30T09:35:50;102373.23;;;3.59;97.45
56681;BME280;42558;52.388;13.390;2024-01-30T09:38:28;102375.69;;;3.59;97.41
56681;BME280;42558;52.388;13.390;2024-01-30T09:41:18;102372.52;;;3.67;96.23
56681;BME280;42558;52.388;13.390;2024-01-30T09:43:48;102367.16;;;3.74;95.67
56681;BME280;42558;52.388;13.390;2024-01-30T09:46:27;102366.05;;;3.84;95.34
56681;BME280;42558;52.388;13.390;2024-01-30T09:49:04;102365.86;;;3.94;93.85
56681;BME280;42558;52.388;13.390;2024-01-30T09:51:41;102359.81;;;4.08;93.24
56681;BME280;42558;52.388;13.390;2024-01-30T09:54:19;102359.74;;;4.18;92.92
56681;BME280;42558;52.388;13.390;2024-01-30T09:56:53;102360.55;;;4.25;92.68
56681;BME280;42558;52.388;13.390;2024-01-30T09:59:28;102354.50;;;4.33;92.37
56681;BME280;42558;52.388;13.390;2024-01-30T10:02:08;102353.70;;;4.48;92.12
56681;BME280;42558;52.388;13.390;2024-01-30T10:04:48;102354.77;;;4.59;90.86
56681;BME280;42558;52.388;13.390;2024-01-30T10:07:26;102350.66;;;4.74;89.99
56681;BME280;42558;52.388;13.390;2024-01-30T10:10:04;102348.46;;;4.98;88.74
56681;BME280;42558;52.388;13.390;2024-01-30T10:12:43;102350.48;;;5.19;87.76
56681;BME280;42558;52.388;13.390;2024-01-30T10:15:19;102344.70;;;5.22;86.32
56681;BME280;42558;52.388;13.390;2024-01-30T10:17:53;102339.74;;;5.47;86.31
56681;BME280;42558;52.388;13.390;2024-01-30T10:20:28;102334.90;;;5.68;86.84
56681;BME280;42558;52.388;13.390;2024-01-30T10:23:08;102336.67;;;5.92;85.09
56681;BME280;42558;52.388;13.390;2024-01-30T10:25:48;102332.48;;;6.04;84.27
56681;BME280;42558;52.388;13.390;2024-01-30T10:28:20;102332.67;;;6.19;83.41
56681;BME280;42558;52.388;13.390;2024-01-30T10:31:08;102328.46;;;6.47;82.30
56681;BME280;42558;52.388;13.390;2024-01-30T10:33:53;102327.27;;;6.44;80.21
56681;BME280;42558;52.388;13.390;2024-01-30T10:36:50;102325.53;;;6.51;80.27
56681;BME280;42558;52.388;13.390;2024-01-30T10:39:48;102328.00;;;6.42;78.67
56681;BME280;42558;52.388;13.390;2024-01-30T10:42:33;102323.13;;;6.68;78.49
56681;BME280;42558;52.388;13.390;2024-01-30T10:45:09;102322.28;;;6.81;77.99
56681;BME280;42558;52.388;13.390;2024-01-30T10:47:55;102317.13;;;6.60;77.12
56681;BME280;42558;52.388;13.390;2024-01-30T10:50:33;102319.79;;;6.42;77.39
56681;BME280;42558;52.388;13.390;2024-01-30T10:53:18;102322.21;;;6.20;78.13
56681;BME280;42558;52.388;13.390;2024-01-30T10:55:52;102321.45;;;6.46;79.45
56681;BME280;42558;52.388;13.390;2024-01-30T10:58:27;102320.92;;;6.56;78.65
56681;BME280;42558;52.388;13.390;2024-01-30T11:01:03;102318.72;;;6.38;78.10
56681;BME280;42558;52.388;13.390;2024-01-30T11:03:43;102322.11;;;6.40;78.29
56681;BME280;42558;52.388;13.390;2024-01-30T11:06:17;102318.41;;;6.14;78.36
56681;BME280;42558;52.388;13.390;2024-01-30T11:09:05;102321.83;;;6.07;79.74
56681;BME280;42558;52.388;13.390;2024-01-30T11:11:58;102318.04;;;6.08;79.88
56681;BME280;42558;52.388;13.390;2024-01-30T11:14:34;102315.52;;;6.12;78.72
56681;BME280;42558;52.388;13.390;2024-01-30T11:17:14;102315.20;;;6.13;79.31
56681;BME280;42558;52.388;13.390;2024-01-30T11:19:48;102315.91;;;5.95;80.05
56681;BME280;42558;52.388;13.390;2024-01-30T11:22:23;102315.11;;;6.11;79.91
56681;BME280;42558;52.388;13.390;2024-01-30T11:24:59;102311.84;;;6.09;79.46
56681;BME280;42558;52.388;13.390;2024-01-30T11:27:31;102310.31;;;6.07;79.86
56681;BME280;42558;52.388;13.390;2024-01-30T11:30:32;102306.38;;;5.99;80.16
56681;BME280;42558;52.388;13.390;2024-01-30T11:33:29;102306.86;;;6.14;80.59
56681;BME280;42558;52.388;13.390;2024-01-30T11:36:28;102303.24;;;6.09;80.22
56681;BME280;42558;52.388;13.390;2024-01-30T11:39:17;102302.21;;;6.06;80.19
56681;BME280;42558;52.388;13.390;2024-01-30T11:42:04;102304.77;;;6.11;80.41
56681;BME280;42558;52.388;13.390;2024-01-30T11:44:49;102304.08;;;6.14;80.65
56681;BME280;42558;52.388;13.390;2024-01-30T11:47:23;102301.71;;;6.31;80.83
56681;BME280;42558;52.388;13.390;2024-01-30T11:49:53;102302.20;;;6.27;80.13
56681;BME280;42558;52.388;13.390;2024-01-30T11:52:28;102304.58;;;6.32;80.32
56681;BME280;42558;52.388;13.390;2024-01-30T11:55:00;102302.73;;;6.24;79.94
56681;BME280;42558;52.388;13.390;2024-01-30T11:57:34;102299.42;;;6.40;79.87
56681;BME280;42558;52.388;13.390;2024-01-30T12:00:18;102295.24;;;6.50;79.96
56681;BME280;42558;52.388;13.390;2024-01-30T12:02:55;102291.44;;;6.54;79.98
56681;BME280;42558;52.388;13.390;2024-01-30T12:05:58;102288.06;;;6.49;79.97
56681;BME280;42558;52.388;13.390;2024-01-30T12:08:37;102285.09;;;6.59;80.55
56681;BME280;42558;52.388;13.390;2024-01-30T12:11:11;102281.75;;;6.52;80.57
56681;BME280;42558;52.388;13.390;2024-01-30T12:13:43;102279.02;;;6.57;80.48
56681;BME280;42558;52.388;13.390;2024-01-30T12:16:29;102277.27;;;6.50;80.89
56681;BME280;42558;52.388;13.390;2024-01-30T12:19:03;102277.92;;;6.43;79.95
56681;BME280;42558;52.388;13.390;2024-01-30T12:21:38;102278.27;;;6.49;80.83
56681;BME280;42558;52.388;13.390;2024-01-30T12:24:14;102273.13;;;6.61;80.89
56681;BME280;42558;52.388;13.390;2024-01-30T12:26:44;102274.27;;;6.62;80.87
56681;BME280;42558;52.388;13.390;2024-01-30T12:29:17;102268.29;;;6.68;80.83
56681;BME280;42558;52.388;13.390;2024-01-30T12:32:01;102262.31;;;6.77;80.93
56681;BME280;42558;52.388;13.390;2024-01-30T12:34:34;102257.66;;;6.75;80.94
56681;BME280;42558;52.388;13.390;2024-01-30T12:37:32;102246.31;;;6.86;81.29
56681;BME280;42558;52.388;13.390;2024-01-30T12:40:16;102242.00;;;6.83;80.85
56681;BME280;42558;52.388;13.390;2024-01-30T12:42:51;102238.53;;;6.91;81.39
56681;BME280;42558;52.388;13.390;2024-01-30T12:45:28;102236.58;;;6.97;81.35
56681;BME280;42558;52.388;13.390;2024-01-30T12:47:59;102231.41;;;6.98;81.06
56681;BME280;42558;52.388;13.390;2024-01-30T12:50:29;102226.33;;;7.01;81.33
56681;BME280;42558;52.388;13.390;2024-01-30T12:53:00;102220.91;;;7.01;80.13
56681;BME280;42558;52.388;13.390;2024-01-30T12:55:30;102219.00;;;7.05;79.48
56681;BME280;42558;52.388;13.390;2024-01-30T12:58:01;102217.29;;;7.19;79.71
56681;BME280;42558;52.388;13.390;2024-01-30T13:00:35;102213.08;;;7.23;79.75
56681;BME280;42558;52.388;13.390;2024-01-30T13:03:14;102216.92;;;7.19;79.85
56681;BME280;42558;52.388;13.390;2024-01-30T13:05:55;102214.63;;;7.19;79.70
56681;BME280;42558;52.388;13.390;2024-01-30T13:08:29;102211.85;;;7.22;80.45
56681;BME280;42558;52.388;13.390;2024-01-30T13:10:59;102210.24;;;7.25;80.06
56681;BME280;42558;52.388;13.390;2024-01-30T13:13:30;102212.66;;;7.28;80.01
56681;BME280;42558;52.388;13.390;2024-01-30T13:16:01;102211.70;;;7.27;80.56
56681;BME280;42558;52.388;13.390;2024-01-30T13:18:33;102209.42;;;7.26;80.67
56681;BME280;42558;52.388;13.390;2024-01-30T13:21:11;102213.05;;;7.26;80.62